Aktuální počasí v Česku a ve světě - METAR

Seznam meteostanic umístěných nejčasteji na letišti v ČR a ve světě

Vyhledat místa podle abecedy:
A B C D E F G H I J K L M N O P Q R S T U V W X Y Z

Filtrovat:

ID stanice:
a/nebo
Název místa (fulltext):
 
Místo (ID)Naposledy načteno 
Doksany - Litoměřice (Doksany) 04.12.2020 08:00 UTC Zobrazit data
Místo: Doksany - Litoměřice
Teplota: 0 °C (pocitová: -5.9 °C)
Vítr: 2 m/s z(e) 0°
Počasí: zataženo
Dohlednost: 6 km
Zákl. oblačnosti: 3/8 630 m;7/8 900 m
Vlhkost: 100%
Dukovany (Dukovany) 04.12.2020 08:00 UTC Zobrazit data
Místo: Dukovany
Teplota: 0 °C (pocitová: -10.9 °C)
Vítr: 8 m/s z(e) 120°
Počasí: mlha
Dohlednost: 700 m
Zákl. oblačnosti: 8/8 150 m
Vlhkost: 100%
Dakar (GOOY) 04.12.2020 08:00 UTC Zobrazit METAR
GOOY 040800Z 03009KT CAVOK 25/21 Q1014
Damascus (OSDI) 04.12.2020 08:00 UTC Zobrazit METAR
OSDI 040800Z 02004KT CAVOK 13/08 Q1021
Debrecen (LHDC) 04.12.2020 06:45 UTC Zobrazit METAR
LHDC 040645Z AUTO 06006KT 6000 NSC 01/M01 Q1008 NOSIG
Delhi (VIDP) 04.12.2020 08:00 UTC Zobrazit METAR
VIDP 040800Z 21004KT 2000 FU NSC 25/08 Q1013 NOSIG
Dhaka (VGZR) Zatím nenačteno  
Diego Garcia (FJDG) 04.12.2020 07:55 UTC Zobrazit METAR
FJDG 040755Z VRB04KT 9999 FEW018 SCT080 SCT250 32/27 A2974 RMK SLP068 T03150271
Djibouti (HDAM) 02.12.2020 09:00 UTC Zobrazit METAR
HDAM 020900Z 08010KT 9999 FEW023 30/23 Q1015
Dnipropetrovs'k (UKDD) 12.08.2013 14:00 UTC Zobrazit METAR
UKDD 121400Z CAVOK 33/13 Q1012 08090070 NOSIG
Dodoma (HTDO) 04.12.2020 08:00 UTC Zobrazit METAR
HTDO 040800Z 10010KT 9999 SCT024 24/19 Q1021 NOSIG
Doha (OTBD) 04.12.2020 08:00 UTC Zobrazit METAR
OTBD 040800Z AUTO 34007KT 310V010 CAVOK 29/18 Q1016 NOSIG
Dortmund (EDLW) 04.12.2020 07:50 UTC Zobrazit METAR
EDLW 040750Z 16011KT 130V190 9999 SCT025 06/02 Q0984
Dresden (EDDC) 04.12.2020 07:50 UTC Zobrazit METAR
EDDC 040750Z 16017KT 9999 FEW017 02/M01 Q0994 TEMPO 16020G30KT
Dublin (EIDW) 04.12.2020 08:00 UTC Zobrazit METAR
EIDW 040800Z 29016KT 9999 FEW015 M00/M02 Q0982 R10R/190095 R16/190095 NOSIG
Dubrovnik (LDDU) 04.12.2020 08:00 UTC Zobrazit METAR
LDDU 040800Z 10012KT 9999 -RA FEW030 BKN045 12/10 Q1005 TEMPO RA
Dushanbe (UTDD) Zatím nenačteno  
Dusseldorf (EDDL) 04.12.2020 07:50 UTC Zobrazit METAR
EDDL 040750Z 16017G29KT 9999 FEW025 BKN040 06/03 Q0983 NOSIG
Dzaoudzi (FMCZ) 04.12.2020 08:00 UTC Zobrazit METAR
FMCZ 040800Z AUTO 31009KT 9999 SCT029 31/23 Q1014 TEMPO SHRA SCT020TCU
Reklama


Další české internetové stránky (nejen) o počasí najdete v katalogu TOPlist - weby o počasí nebo vyhledejte na internetu, co jste tu na 🌞 Slunečnu ⛅ zatím nenašli:
⭐ Přidat Slunečno.cz do oblíbených | 🏠 Nastavit Slunečno.cz jako HOMEPAGE

⬆️ Posunout stránku nahoru ⬆️
Reklama